Terminal Aerodrome Forecast
Issued by NWS

Current Version | Previous Version | Text Only | Print | Product List | Glossary Off
Versions: 1 2 3 4 5 6 7 8 9 10 11 12 13 14 15 16 17 18 19 20 21 22 23

000
FTUS41 KRLX 200232 AAA
TAFCKB
TAF AMD
KCKB 200232Z 2003/2024 20006KT P6SM BKN045
     FM200500 22007KT 6SM BR OVC030
     FM201600 26006KT P6SM BKN020=

USA.gov is the U.S. government's official web portal to all federal, state and local government web resources and services.